London, United Kingdom

9:53 PM GMT on February 12, 2016 (GMT +0000)
Heathrow | | Change Station
CLOSE
Current Station
Airport
Location: London,
Elevation: 79 ft
Nearby Weather Stations

Elev 79 ft 51.48 °N, 0.46 °W | Updated 33 minutes ago

Mostly Cloudy
Mostly Cloudy
41 °F
Feels Like 37 °F
N
6
Wind Variable Wind from East

Today
High -- | Low -- °F
--% Chance of Precip.
Yesterday
High -- | Low -- °F
Precip. -- in
Pressure 29.42 in
Visibility 6.2 miles
Clouds Few 2300 ft
Mostly Cloudy 4700 ft
Windchill 37 °F
Dew Point 36 °F
Humidity 81%
Rainfall 0.00 in
Snow Depth Not available.
7:22 AM 5:10 PM
Waxing Crescent, 24% visible
METAR EGLL 122120Z AUTO 09005KT 9999 FEW023 BKN047 05/02 Q0996
Pressure 29.42 in
Visibility 6.2 miles
Clouds Few 2300 ft
Mostly Cloudy 4700 ft
Windchill 37 °F
Dew Point 36 °F
Humidity 81%
Rainfall 0.00 in
Snow Depth Not available.
7:22 AM 5:10 PM
Waxing Crescent, 24% visible
METAR EGLL 122120Z AUTO 09005KT 9999 FEW023 BKN047 05/02 Q0996

10-Day Weather Forecast

Almanac

Astronomy

Feb. 12, 2016 Rise Set
Actual Time
Civil Twilight
Nautical Twilight
Astronomical Twilight
Moon
Length of Visible Light
Length of Day
Tomorrow will be .
, % of the Moon is Illuminated

Today's Extremes

Country Highs Country Lows

Community

WunderPhotos

Upload Photos

1,892,408 photos uploaded!

WunderBlog® & News

Nearby

Air Quality

  Air Quality AQ Index Pollutant
Not available.

Snow Depth

Station Depth Elevation

Earthquake Activity

City Distance Mag. Time & Date
Minimum magnitude displayed is 2.5.

Coastal Water Temperatures

Place Temperature

Stations

Nearby Weather Stations

Station Location Temp. Windchill Dew Point Humidity Wind Precip. Elev Updated Type